createdAt,value
2023-03-07T00:01:07.348Z,3.94
2023-03-07T00:03:33.853Z,3.90
2023-03-07T00:06:02.139Z,3.85
2023-03-07T00:08:28.691Z,3.80
2023-03-07T00:10:55.136Z,3.80
2023-03-07T00:13:21.556Z,3.80
2023-03-07T00:15:47.983Z,3.77
2023-03-07T00:18:14.475Z,3.74
2023-03-07T00:20:40.814Z,3.73
2023-03-07T00:23:07.223Z,3.71
2023-03-07T00:25:33.597Z,3.71
2023-03-07T00:27:59.959Z,3.71
2023-03-07T00:30:26.313Z,3.69
2023-03-07T00:32:52.762Z,3.67
2023-03-07T00:35:19.159Z,3.67
2023-03-07T00:37:45.571Z,3.68
2023-03-07T00:40:12.376Z,3.65
2023-03-07T00:42:38.777Z,3.65
2023-03-07T00:45:05.601Z,3.62
2023-03-07T00:47:32.064Z,3.62
2023-03-07T00:49:58.464Z,3.59
2023-03-07T00:52:24.913Z,3.58
2023-03-07T00:54:51.503Z,3.60
2023-03-07T00:57:17.895Z,3.60
2023-03-07T00:59:44.433Z,3.61
2023-03-07T01:02:11.877Z,3.62
2023-03-07T01:04:38.302Z,3.62
2023-03-07T01:07:04.803Z,3.64
2023-03-07T01:09:31.225Z,3.67
2023-03-07T01:11:57.729Z,3.67
2023-03-07T01:14:24.209Z,3.69
2023-03-07T01:16:50.695Z,3.70
2023-03-07T01:19:17.803Z,3.70
2023-03-07T01:21:44.390Z,3.69
2023-03-07T01:24:14.702Z,3.68
2023-03-07T01:26:41.244Z,3.67
2023-03-07T01:29:08.761Z,3.67
2023-03-07T01:31:35.798Z,3.64
2023-03-07T01:34:03.358Z,3.64
2023-03-07T01:36:33.108Z,3.62
2023-03-07T01:39:14.738Z,3.60
2023-03-07T01:41:41.654Z,3.61
2023-03-07T01:44:19.369Z,3.60
2023-03-07T01:46:55.540Z,3.59
2023-03-07T01:49:36.453Z,3.57
2023-03-07T01:52:18.003Z,3.54
2023-03-07T01:54:51.571Z,3.51
2023-03-07T01:57:21.620Z,3.48
2023-03-07T01:59:52.905Z,3.46
2023-03-07T02:02:24.847Z,3.44
2023-03-07T02:04:57.630Z,3.42
2023-03-07T02:07:31.179Z,3.41
2023-03-07T02:09:58.472Z,3.39
2023-03-07T02:12:24.931Z,3.38
2023-03-07T02:14:52.114Z,3.35
2023-03-07T02:17:19.732Z,3.36
2023-03-07T02:20:01.048Z,3.34
2023-03-07T02:22:27.627Z,3.34
2023-03-07T02:25:10.685Z,3.31
2023-03-07T02:27:38.895Z,3.29
2023-03-07T02:30:07.675Z,3.29
2023-03-07T02:32:34.086Z,3.29
2023-03-07T02:35:00.520Z,3.29
2023-03-07T02:37:38.107Z,3.28
2023-03-07T02:40:08.491Z,3.24
2023-03-07T02:42:38.935Z,3.24
2023-03-07T02:45:10.033Z,3.24
2023-03-07T02:47:36.549Z,3.24
2023-03-07T02:50:03.589Z,3.25
2023-03-07T02:52:30.066Z,3.26
2023-03-07T02:54:58.382Z,3.25
2023-03-07T02:57:24.846Z,3.25
2023-03-07T02:59:51.558Z,3.25
2023-03-07T03:02:18.017Z,3.24
2023-03-07T03:04:44.423Z,3.25
2023-03-07T03:07:11.023Z,3.25
2023-03-07T03:09:37.520Z,3.26
2023-03-07T03:12:04.130Z,3.27
2023-03-07T03:14:30.588Z,3.26
2023-03-07T03:16:57.108Z,3.24
2023-03-07T03:19:23.521Z,3.23
2023-03-07T03:21:50.227Z,3.22
2023-03-07T03:24:16.593Z,3.21
2023-03-07T03:26:43.031Z,3.22
2023-03-07T03:29:10.170Z,3.23
2023-03-07T03:31:36.819Z,3.21
2023-03-07T03:34:05.136Z,3.21
2023-03-07T03:36:31.738Z,3.21
2023-03-07T03:38:59.407Z,3.19
2023-03-07T03:41:26.453Z,3.19
2023-03-07T03:43:52.928Z,3.21
2023-03-07T03:46:19.525Z,3.20
2023-03-07T03:48:54.525Z,3.21
2023-03-07T03:51:22.390Z,3.19
2023-03-07T03:53:49.936Z,3.18
2023-03-07T03:56:19.022Z,3.19
2023-03-07T03:58:51.647Z,3.19
2023-03-07T04:01:19.416Z,3.20
2023-03-07T04:03:48.972Z,3.19
2023-03-07T04:06:28.768Z,3.20
2023-03-07T04:08:55.889Z,3.21
2023-03-07T04:11:23.621Z,3.20
2023-03-07T04:13:50.386Z,3.21
2023-03-07T04:16:17.788Z,3.20
2023-03-07T04:18:44.736Z,3.22
2023-03-07T04:21:11.586Z,3.22
2023-03-07T04:23:38.317Z,3.23
2023-03-07T04:26:06.512Z,3.24
2023-03-07T04:28:45.002Z,3.24
2023-03-07T04:31:22.585Z,3.24
2023-03-07T04:33:50.427Z,3.25
2023-03-07T04:36:17.338Z,3.23
2023-03-07T04:38:45.135Z,3.23
2023-03-07T04:41:17.890Z,3.25
2023-03-07T04:43:44.543Z,3.24
2023-03-07T04:46:12.914Z,3.25
2023-03-07T04:48:39.497Z,3.24
2023-03-07T04:51:06.343Z,3.25
2023-03-07T04:53:32.817Z,3.25
2023-03-07T04:56:04.698Z,3.21
2023-03-07T04:58:31.683Z,3.22
2023-03-07T05:00:58.860Z,3.21
2023-03-07T05:03:26.616Z,3.21
2023-03-07T05:05:53.944Z,3.19
2023-03-07T05:08:21.514Z,3.18
2023-03-07T05:10:48.054Z,3.17
2023-03-07T05:13:14.541Z,3.14
2023-03-07T05:15:40.981Z,3.12
2023-03-07T05:18:07.458Z,3.10
2023-03-07T05:20:33.946Z,3.07
2023-03-07T05:23:00.377Z,3.03
2023-03-07T05:25:26.925Z,2.99
2023-03-07T05:27:53.406Z,2.97
2023-03-07T05:30:21.620Z,2.93
2023-03-07T05:32:48.001Z,2.90
2023-03-07T05:35:14.512Z,2.86
2023-03-07T05:37:41.005Z,2.82
2023-03-07T05:40:10.940Z,2.83
2023-03-07T05:42:37.628Z,2.67
2023-03-07T05:45:05.675Z,2.56
2023-03-07T05:47:32.584Z,2.47
2023-03-07T05:49:58.972Z,2.39
2023-03-07T05:52:26.606Z,2.36
2023-03-07T05:54:53.119Z,2.33
2023-03-07T05:57:19.647Z,2.28
2023-03-07T05:59:46.040Z,2.21
2023-03-07T06:02:12.486Z,2.21
2023-03-07T06:04:38.870Z,2.18
2023-03-07T06:07:05.399Z,2.12
2023-03-07T06:09:31.893Z,2.07
2023-03-07T06:11:58.279Z,2.03
2023-03-07T06:14:24.914Z,1.99
2023-03-07T06:16:51.559Z,1.93
2023-03-07T06:19:17.911Z,1.88
2023-03-07T06:21:44.753Z,1.89
2023-03-07T06:24:11.177Z,1.90
2023-03-07T06:26:37.553Z,1.87
2023-03-07T06:29:04.451Z,1.77
2023-03-07T06:31:31.011Z,1.72
2023-03-07T06:33:57.791Z,1.64
2023-03-07T06:36:24.333Z,1.62
2023-03-07T06:38:50.783Z,1.59
2023-03-07T06:41:17.785Z,1.55
2023-03-07T06:43:44.240Z,1.52
2023-03-07T06:46:10.837Z,1.49
2023-03-07T06:48:37.242Z,1.51
2023-03-07T06:51:07.989Z,1.54
2023-03-07T06:53:34.447Z,1.52
2023-03-07T06:56:00.842Z,1.54
2023-03-07T06:58:27.438Z,1.55
2023-03-07T07:00:53.853Z,1.57
2023-03-07T07:03:20.954Z,1.53
2023-03-07T07:05:47.472Z,1.53
2023-03-07T07:08:13.925Z,1.55
2023-03-07T07:10:40.295Z,1.50
2023-03-07T07:13:06.846Z,1.56
2023-03-07T07:15:33.570Z,1.60
2023-03-07T07:17:59.986Z,1.55
2023-03-07T07:20:26.520Z,1.52
2023-03-07T07:22:53.038Z,1.51
2023-03-07T07:25:19.447Z,1.50
2023-03-07T07:27:45.884Z,1.53
2023-03-07T07:30:13.801Z,1.53
2023-03-07T07:32:40.681Z,1.50
2023-03-07T07:35:08.087Z,1.52
2023-03-07T07:37:34.488Z,1.49
2023-03-07T07:40:05.206Z,1.52
2023-03-07T07:42:32.379Z,1.54
2023-03-07T07:44:59.015Z,1.55
2023-03-07T07:47:25.427Z,1.61
2023-03-07T07:49:51.880Z,1.70
2023-03-07T07:52:18.283Z,1.71
2023-03-07T07:54:44.654Z,1.63
2023-03-07T07:57:11.048Z,1.63
2023-03-07T07:59:37.432Z,1.63
2023-03-07T08:02:03.896Z,1.70
2023-03-07T08:04:30.471Z,1.62
2023-03-07T08:06:56.952Z,1.60
2023-03-07T08:09:23.419Z,1.60
2023-03-07T08:11:50.009Z,1.55
2023-03-07T08:14:16.548Z,1.55
2023-03-07T08:16:43.069Z,1.63
2023-03-07T08:19:10.588Z,1.61
2023-03-07T08:21:37.082Z,1.62
2023-03-07T08:24:04.138Z,1.62
2023-03-07T08:26:31.531Z,1.67
2023-03-07T08:28:58.662Z,1.70
2023-03-07T08:31:25.247Z,1.70
2023-03-07T08:33:53.019Z,1.75
2023-03-07T08:36:20.866Z,1.78
2023-03-07T08:38:54.340Z,1.78
2023-03-07T08:41:22.688Z,1.79
2023-03-07T08:43:49.420Z,1.85
2023-03-07T08:46:16.005Z,1.86
2023-03-07T08:48:42.651Z,1.89
2023-03-07T08:51:12.730Z,1.85
2023-03-07T08:53:39.231Z,1.81
2023-03-07T08:56:07.543Z,1.83
2023-03-07T08:58:34.357Z,1.78
2023-03-07T09:01:01.364Z,1.83
2023-03-07T09:03:27.772Z,1.93
2023-03-07T09:05:54.267Z,1.96
2023-03-07T09:08:20.949Z,1.95
2023-03-07T09:10:47.488Z,2.02
2023-03-07T09:13:14.142Z,2.12
2023-03-07T09:15:41.647Z,2.18
2023-03-07T09:18:08.527Z,2.26
2023-03-07T09:20:35.014Z,2.23
2023-03-07T09:23:01.492Z,2.12
2023-03-07T09:25:28.055Z,2.19
2023-03-07T09:27:54.521Z,2.30
2023-03-07T09:30:22.658Z,2.35
2023-03-07T09:32:50.034Z,2.38
2023-03-07T09:35:16.495Z,2.37
2023-03-07T09:37:43.005Z,2.40
2023-03-07T09:40:18.892Z,2.47
2023-03-07T09:42:57.564Z,2.50
2023-03-07T09:45:45.472Z,2.58
2023-03-07T09:48:43.102Z,2.65
2023-03-07T09:51:15.854Z,2.69
2023-03-07T09:53:43.512Z,2.67
2023-03-07T09:56:26.995Z,2.75
2023-03-07T09:59:41.391Z,2.81
2023-03-07T10:02:38.089Z,2.79
2023-03-07T10:05:25.485Z,2.88
2023-03-07T10:07:52.817Z,2.95
2023-03-07T10:10:26.808Z,2.99
2023-03-07T10:13:18.677Z,3.01
2023-03-07T10:15:52.717Z,2.86
2023-03-07T10:18:23.545Z,2.87
2023-03-07T10:21:15.994Z,2.88
2023-03-07T10:24:11.406Z,2.93
2023-03-07T10:26:48.900Z,2.94
2023-03-07T10:29:19.075Z,2.86
2023-03-07T10:31:49.357Z,2.90
2023-03-07T10:34:27.090Z,3.01
2023-03-07T10:37:08.695Z,3.00
2023-03-07T10:39:53.847Z,2.80
2023-03-07T10:42:23.427Z,2.75
2023-03-07T10:44:51.692Z,2.84
2023-03-07T10:47:24.236Z,2.92
2023-03-07T10:49:56.360Z,3.04
2023-03-07T10:52:39.024Z,3.21
2023-03-07T10:55:43.514Z,3.41
2023-03-07T10:58:20.470Z,3.50
2023-03-07T11:00:58.933Z,3.48
2023-03-07T11:03:52.080Z,3.52
2023-03-07T11:06:40.359Z,3.48
2023-03-07T11:09:28.043Z,3.49
2023-03-07T11:12:06.539Z,3.54
2023-03-07T11:15:04.458Z,3.64
2023-03-07T11:17:48.109Z,3.75
2023-03-07T11:20:30.336Z,3.65
2023-03-07T11:23:23.341Z,3.45
2023-03-07T11:25:51.579Z,3.25
2023-03-07T11:28:35.507Z,2.71
2023-03-07T11:31:08.398Z,2.36
2023-03-07T11:33:44.343Z,2.04
2023-03-07T11:36:36.680Z,1.97
2023-03-07T11:39:12.122Z,2.09
2023-03-07T11:41:41.972Z,2.31
2023-03-07T11:44:31.245Z,2.50
2023-03-07T11:47:07.193Z,2.53
2023-03-07T11:50:02.180Z,2.64
2023-03-07T11:53:02.337Z,2.71
2023-03-07T11:55:36.162Z,2.81
2023-03-07T11:58:37.637Z,2.85
2023-03-07T12:01:13.840Z,2.94
2023-03-07T12:04:01.624Z,3.05
2023-03-07T12:06:54.865Z,3.16
2023-03-07T12:09:45.949Z,3.25
2023-03-07T12:12:36.823Z,3.29
2023-03-07T12:15:21.807Z,3.33
2023-03-07T12:17:58.767Z,3.19
2023-03-07T12:20:34.110Z,3.02
2023-03-07T12:23:06.528Z,2.88
2023-03-07T12:25:38.461Z,2.55
2023-03-07T12:28:29.844Z,2.44
2023-03-07T12:31:27.032Z,2.52
2023-03-07T12:34:02.802Z,2.59
2023-03-07T12:36:41.191Z,2.67
2023-03-07T12:39:14.471Z,2.71
2023-03-07T12:42:13.821Z,2.73
2023-03-07T12:44:48.413Z,2.70
2023-03-07T12:47:33.593Z,2.74
2023-03-07T12:50:23.225Z,2.71
2023-03-07T12:52:58.158Z,2.72
2023-03-07T12:55:26.786Z,2.82
2023-03-07T12:58:04.327Z,2.77
2023-03-07T13:00:36.104Z,2.81
2023-03-07T13:03:06.809Z,2.70
2023-03-07T13:05:37.809Z,2.77
2023-03-07T13:08:07.358Z,2.84
2023-03-07T13:10:34.195Z,2.90
2023-03-07T13:13:00.658Z,2.87
2023-03-07T13:15:39.062Z,2.92
2023-03-07T13:18:25.983Z,2.99
2023-03-07T13:21:32.562Z,3.04
2023-03-07T13:24:36.359Z,2.94
2023-03-07T13:27:05.112Z,3.16
2023-03-07T13:30:09.249Z,3.19
2023-03-07T13:32:50.855Z,3.10
2023-03-07T13:35:32.593Z,3.08
2023-03-07T13:38:13.393Z,3.11
2023-03-07T13:40:48.835Z,3.19
2023-03-07T13:43:27.477Z,3.19
2023-03-07T13:46:05.741Z,3.22
2023-03-07T13:48:32.110Z,3.14
2023-03-07T13:51:08.723Z,3.01
2023-03-07T13:53:53.190Z,3.22
2023-03-07T13:56:27.347Z,3.15
2023-03-07T13:59:01.248Z,3.19
2023-03-07T14:01:44.427Z,3.26
2023-03-07T14:04:29.673Z,3.30
2023-03-07T14:07:36.651Z,3.34
2023-03-07T14:10:22.044Z,3.24
2023-03-07T14:13:23.069Z,3.31
2023-03-07T14:16:01.619Z,3.15
2023-03-07T14:18:49.422Z,3.11
2023-03-07T14:21:55.298Z,3.08
2023-03-07T14:24:40.447Z,3.09
2023-03-07T14:27:13.716Z,2.99
2023-03-07T14:29:58.359Z,2.97
2023-03-07T14:32:29.935Z,3.12
2023-03-07T14:34:57.014Z,3.11
2023-03-07T14:37:28.174Z,3.07
2023-03-07T14:40:29.486Z,3.03
2023-03-07T14:43:23.467Z,3.17
2023-03-07T14:46:08.148Z,3.04
2023-03-07T14:48:40.482Z,2.97
2023-03-07T14:51:17.559Z,2.93
2023-03-07T14:53:44.245Z,2.97
2023-03-07T14:56:11.340Z,2.93
2023-03-07T14:58:50.308Z,2.96
2023-03-07T15:01:19.767Z,3.06
2023-03-07T15:03:51.623Z,3.11
2023-03-07T15:06:21.865Z,3.16
2023-03-07T15:08:49.324Z,3.24
2023-03-07T15:11:42.146Z,3.16
2023-03-07T15:14:15.236Z,3.09
2023-03-07T15:16:49.614Z,3.10
2023-03-07T15:19:37.964Z,3.04
2023-03-07T15:22:08.511Z,3.06
2023-03-07T15:24:39.595Z,3.15
2023-03-07T15:27:11.773Z,3.04
2023-03-07T15:29:47.101Z,2.96
2023-03-07T15:32:28.564Z,2.93
2023-03-07T15:35:17.969Z,2.87
2023-03-07T15:38:00.045Z,2.84
2023-03-07T15:40:35.017Z,2.96
2023-03-07T15:43:04.942Z,3.02
2023-03-07T15:45:35.143Z,3.00
2023-03-07T15:48:10.512Z,2.99
2023-03-07T15:50:37.770Z,2.94
2023-03-07T15:53:10.546Z,2.99
2023-03-07T15:55:38.846Z,2.96
2023-03-07T15:58:13.697Z,3.01
2023-03-07T16:00:41.775Z,3.01
2023-03-07T16:03:29.726Z,2.97
2023-03-07T16:05:58.055Z,2.89
2023-03-07T16:08:24.507Z,2.86
2023-03-07T16:10:50.876Z,2.83
2023-03-07T16:13:22.744Z,2.86
2023-03-07T16:16:05.765Z,2.84
2023-03-07T16:18:32.864Z,2.80
2023-03-07T16:20:59.543Z,2.82
2023-03-07T16:23:31.378Z,2.80
2023-03-07T16:26:03.949Z,2.75
2023-03-07T16:28:30.357Z,2.65
2023-03-07T16:30:57.082Z,2.57
2023-03-07T16:33:23.738Z,2.55
2023-03-07T16:35:53.466Z,2.52
2023-03-07T16:38:22.851Z,2.59
2023-03-07T16:40:49.224Z,2.57
2023-03-07T16:43:31.230Z,2.53
2023-03-07T16:46:17.848Z,2.49
2023-03-07T16:48:45.404Z,2.43
2023-03-07T16:51:17.495Z,2.44
2023-03-07T16:53:45.105Z,2.39
2023-03-07T16:56:34.630Z,2.42
2023-03-07T16:59:01.838Z,2.40
2023-03-07T17:01:28.551Z,2.41
2023-03-07T17:03:56.525Z,2.38
2023-03-07T17:06:33.611Z,2.26
2023-03-07T17:09:06.204Z,2.25
2023-03-07T17:11:33.329Z,2.23
2023-03-07T17:14:02.936Z,2.26
2023-03-07T17:16:29.972Z,2.26
2023-03-07T17:18:56.426Z,2.19
2023-03-07T17:21:23.216Z,2.14
2023-03-07T17:23:50.086Z,2.14
2023-03-07T17:26:28.709Z,2.15
2023-03-07T17:28:57.769Z,2.16
2023-03-07T17:31:24.296Z,2.19
2023-03-07T17:33:51.427Z,2.22
2023-03-07T17:36:17.945Z,2.11
2023-03-07T17:38:44.403Z,1.92
2023-03-07T17:41:10.838Z,1.77
2023-03-07T17:43:37.314Z,1.67
2023-03-07T17:46:09.306Z,1.49
2023-03-07T17:48:35.842Z,1.42
2023-03-07T17:51:08.180Z,1.38
2023-03-07T17:53:35.754Z,1.35
2023-03-07T17:56:10.240Z,1.30
2023-03-07T17:58:38.445Z,1.28
2023-03-07T18:01:11.198Z,1.22
2023-03-07T18:03:38.650Z,1.21
2023-03-07T18:06:05.354Z,1.12
2023-03-07T18:08:31.854Z,1.08
2023-03-07T18:11:12.717Z,1.08
2023-03-07T18:13:39.866Z,1.07
2023-03-07T18:16:06.882Z,1.01
2023-03-07T18:18:34.951Z,0.97
2023-03-07T18:21:10.897Z,0.94
2023-03-07T18:23:37.965Z,0.96
2023-03-07T18:26:10.563Z,0.93
2023-03-07T18:28:42.284Z,0.91
2023-03-07T18:31:12.578Z,0.86
2023-03-07T18:33:39.332Z,0.82
2023-03-07T18:36:08.938Z,0.75
2023-03-07T18:38:35.464Z,0.72
2023-03-07T18:41:06.419Z,0.71
2023-03-07T18:43:32.879Z,0.67
2023-03-07T18:45:59.537Z,0.63
2023-03-07T18:48:25.948Z,0.58
2023-03-07T18:50:59.926Z,0.49
2023-03-07T18:53:27.242Z,0.47
2023-03-07T18:55:53.995Z,0.46
2023-03-07T18:58:20.600Z,0.42
2023-03-07T19:00:47.279Z,0.39
2023-03-07T19:03:14.497Z,0.33
2023-03-07T19:05:48.798Z,0.30
2023-03-07T19:08:16.657Z,0.27
2023-03-07T19:10:43.576Z,0.23
2023-03-07T19:13:09.914Z,0.23
2023-03-07T19:15:36.330Z,0.20
2023-03-07T19:18:02.697Z,0.15
2023-03-07T19:20:29.073Z,0.14
2023-03-07T19:22:55.465Z,0.12
2023-03-07T19:25:21.952Z,0.09
2023-03-07T19:27:48.324Z,0.06
2023-03-07T19:30:15.298Z,0.03
2023-03-07T19:32:41.706Z,-0.01
2023-03-07T19:35:08.457Z,-0.05
2023-03-07T19:37:36.174Z,-0.07
2023-03-07T19:40:02.626Z,-0.09
2023-03-07T19:42:29.057Z,-0.12
2023-03-07T19:44:55.464Z,-0.14
2023-03-07T19:47:21.999Z,-0.16
2023-03-07T19:49:48.543Z,-0.17
2023-03-07T19:52:16.295Z,-0.25
2023-03-07T19:54:42.713Z,-0.24
2023-03-07T19:57:11.635Z,-0.27
2023-03-07T19:59:37.995Z,-0.30
2023-03-07T20:02:04.395Z,-0.34
2023-03-07T20:04:30.824Z,-0.36
2023-03-07T20:06:57.179Z,-0.38
2023-03-07T20:09:23.634Z,-0.38
2023-03-07T20:11:50.044Z,-0.39
2023-03-07T20:14:16.842Z,-0.39
2023-03-07T20:16:43.244Z,-0.42
2023-03-07T20:19:10.350Z,-0.42
2023-03-07T20:21:37.285Z,-0.43
2023-03-07T20:24:04.560Z,-0.45
2023-03-07T20:26:37.581Z,-0.45
2023-03-07T20:29:05.824Z,-0.46
2023-03-07T20:31:32.746Z,-0.47
2023-03-07T20:34:00.343Z,-0.49
2023-03-07T20:36:30.391Z,-0.50
2023-03-07T20:38:59.078Z,-0.50
2023-03-07T20:41:28.043Z,-0.52
2023-03-07T20:43:58.322Z,-0.55
2023-03-07T20:46:24.878Z,-0.58
2023-03-07T20:48:54.897Z,-0.60
2023-03-07T20:51:24.180Z,-0.61
2023-03-07T20:53:54.188Z,-0.62
2023-03-07T20:56:22.022Z,-0.66
2023-03-07T20:58:49.189Z,-0.68
2023-03-07T21:01:17.835Z,-0.69
2023-03-07T21:03:44.461Z,-0.74
2023-03-07T21:06:11.053Z,-0.77
2023-03-07T21:08:38.003Z,-0.81
2023-03-07T21:11:10.077Z,-0.83
2023-03-07T21:13:38.903Z,-0.89
2023-03-07T21:16:11.647Z,-0.91
2023-03-07T21:18:38.095Z,-0.92
2023-03-07T21:21:10.620Z,-0.96
2023-03-07T21:23:37.271Z,-0.98
2023-03-07T21:26:06.486Z,-1.02
2023-03-07T21:28:34.598Z,-1.07
2023-03-07T21:31:02.763Z,-1.07
2023-03-07T21:33:30.164Z,-1.07
2023-03-07T21:35:57.029Z,-1.09
2023-03-07T21:38:24.167Z,-1.11
2023-03-07T21:40:51.572Z,-1.15
2023-03-07T21:43:18.198Z,-1.19
2023-03-07T21:45:44.702Z,-1.23
2023-03-07T21:48:11.647Z,-1.26
2023-03-07T21:50:42.129Z,-1.27
2023-03-07T21:53:09.382Z,-1.27
2023-03-07T21:55:36.017Z,-1.29
2023-03-07T21:58:02.834Z,-1.31
2023-03-07T22:00:30.123Z,-1.33
2023-03-07T22:02:57.668Z,-1.36
2023-03-07T22:05:24.387Z,-1.39
2023-03-07T22:07:51.592Z,-1.41
2023-03-07T22:10:21.744Z,-1.43
2023-03-07T22:12:48.160Z,-1.46
2023-03-07T22:15:14.602Z,-1.48
2023-03-07T22:17:41.096Z,-1.48
2023-03-07T22:20:08.556Z,-1.52
2023-03-07T22:22:34.975Z,-1.54
2023-03-07T22:25:01.423Z,-1.57
2023-03-07T22:27:27.869Z,-1.61
2023-03-07T22:29:54.372Z,-1.63
2023-03-07T22:32:20.801Z,-1.64
2023-03-07T22:34:47.230Z,-1.64
2023-03-07T22:37:13.650Z,-1.65
2023-03-07T22:39:40.129Z,-1.67
2023-03-07T22:42:06.844Z,-1.69
2023-03-07T22:44:33.249Z,-1.70
2023-03-07T22:46:59.864Z,-1.72
2023-03-07T22:49:30.316Z,-1.73
2023-03-07T22:51:56.912Z,-1.74
2023-03-07T22:54:23.806Z,-1.77
2023-03-07T22:56:50.491Z,-1.78
2023-03-07T22:59:16.929Z,-1.79
2023-03-07T23:01:43.431Z,-1.80
2023-03-07T23:04:10.007Z,-1.84
2023-03-07T23:06:36.963Z,-1.84
2023-03-07T23:09:05.173Z,-1.86
2023-03-07T23:11:33.010Z,-1.87
2023-03-07T23:14:00.125Z,-1.90
2023-03-07T23:16:32.087Z,-1.95
2023-03-07T23:18:59.629Z,-1.97
2023-03-07T23:21:30.008Z,-1.98
2023-03-07T23:23:56.973Z,-2.02
2023-03-07T23:26:25.988Z,-2.03
2023-03-07T23:28:52.768Z,-2.04
2023-03-07T23:31:24.978Z,-2.05
2023-03-07T23:33:58.412Z,-2.05
2023-03-07T23:36:26.410Z,-2.07
2023-03-07T23:38:52.914Z,-2.11
2023-03-07T23:41:20.354Z,-2.12
2023-03-07T23:43:50.121Z,-2.13
2023-03-07T23:46:16.581Z,-2.15
2023-03-07T23:48:42.976Z,-2.13
2023-03-07T23:51:09.452Z,-2.13
2023-03-07T23:53:35.958Z,-2.16
2023-03-07T23:56:05.798Z,-2.17
2023-03-07T23:58:32.551Z,-2.17
